Time,TemperatureF,DewpointF,PressureIn,WindDirection,WindDirectionDegrees,WindSpeedMPH,WindSpeedGustMPH,Humidity,HourlyPrecipIn,Conditions,Clouds,dailyrainin,SoftwareType,DateUTC
2013-01-13 00:04:00,-7.1,-11.6,30.07,WSW,248,2.5,2.7,80,0.00,CLR,,0.00,WeatherDisplay:10.37,2013-01-13 07:04:00,
2013-01-13 00:09:00,-6.7,-11.3,30.07,WSW,248,2.8,3.5,80,0.00,CLR,,0.00,WeatherDisplay:10.37,2013-01-13 07:09:00,
2013-01-13 00:14:00,-6.3,-10.9,30.07,SW,225,2.3,2.3,80,0.00,CLR,,0.00,WeatherDisplay:10.37,2013-01-13 07:14:00,
2013-01-13 00:19:00,-5.8,-9.6,30.07,SSE,158,0.1,1.1,83,0.00,CLR,,0.00,WeatherDisplay:10.37,2013-01-13 07:19:00,
2013-01-13 00:24:00,-6.2,-10.8,30.07,SE,135,0.8,1.1,80,0.00,CLR,,0.00,WeatherDisplay:10.37,2013-01-13 07:24:00,
2013-01-13 00:29:00,-5.8,-9.6,30.07,SE,135,0.0,0.0,83,0.00,CLR,,0.00,WeatherDisplay:10.37,2013-01-13 07:29:00,
2013-01-13 00:34:00,-5.8,-9.9,30.07,SW,225,2.4,2.4,82,0.00,CLR,,0.00,WeatherDisplay:10.37,2013-01-13 07:34:00,
2013-01-13 00:39:00,-5.8,-10.4,30.08,SW,225,3.2,4.6,80,0.00,CLR,,0.00,WeatherDisplay:10.37,2013-01-13 07:39:00,
2013-01-13 00:44:00,-6.0,-10.6,30.08,SW,225,3.9,4.6,80,0.00,CLR,,0.00,WeatherDisplay:10.37,2013-01-13 07:44:00,
2013-01-13 00:49:00,-5.8,-10.4,30.07,SW,225,3.4,3.7,80,0.00,CLR,,0.00,WeatherDisplay:10.37,2013-01-13 07:49:00,
2013-01-13 00:54:00,-5.8,-10.4,30.07,SW,225,3.6,3.7,80,0.00,CLR,,0.00,WeatherDisplay:10.37,2013-01-13 07:54:00,
2013-01-13 00:59:00,-5.8,-10.4,30.07,SSW,202,2.3,2.3,80,0.00,CLR,,0.00,WeatherDisplay:10.37,2013-01-13 07:59:00,
2013-01-13 01:04:00,-5.4,-10.0,30.07,SW,225,2.4,2.7,80,0.00,CLR,,0.00,WeatherDisplay:10.37,2013-01-13 08:04:00,
2013-01-13 01:09:00,-4.9,-9.5,30.07,SW,225,4.0,4.6,80,0.00,CLR,,0.00,WeatherDisplay:10.37,2013-01-13 08:09:00,
2013-01-13 01:14:00,-4.9,-9.5,30.07,WSW,248,1.0,2.3,80,0.00,CLR,,0.00,WeatherDisplay:10.37,2013-01-13 08:14:00,
2013-01-13 01:19:00,-5.1,-9.7,30.07,West,270,2.0,2.3,80,0.00,CLR,,0.00,WeatherDisplay:10.37,2013-01-13 08:19:00,
2013-01-13 01:24:00,-5.1,-9.4,30.07,WSW,248,2.2,2.3,81,0.00,CLR,,0.00,WeatherDisplay:10.37,2013-01-13 08:24:00,
2013-01-13 01:29:00,-4.7,-9.0,30.07,WSW,248,2.1,2.7,81,0.00,CLR,,0.00,WeatherDisplay:10.37,2013-01-13 08:29:00,
2013-01-13 01:34:00,-5.1,-9.4,30.07,SW,225,3.0,3.5,81,0.00,CLR,,0.00,WeatherDisplay:10.37,2013-01-13 08:34:00,
2013-01-13 01:39:00,-5.3,-9.6,30.08,SW,225,3.0,3.7,81,0.00,CLR,,0.00,WeatherDisplay:10.37,2013-01-13 08:39:00,
2013-01-13 01:44:00,-5.3,-9.6,30.08,West,270,2.7,3.5,81,0.00,CLR,,0.00,WeatherDisplay:10.37,2013-01-13 08:44:00,
2013-01-13 01:49:00,-5.4,-9.7,30.08,SW,225,3.2,3.5,81,0.00,CLR,,0.00,WeatherDisplay:10.37,2013-01-13 08:49:00,
2013-01-13 01:54:00,-5.6,-9.9,30.08,WSW,248,2.7,2.7,81,0.00,CLR,,0.00,WeatherDisplay:10.37,2013-01-13 08:54:00,
2013-01-13 01:59:00,-5.6,-9.9,30.08,WSW,248,2.5,2.7,81,0.00,CLR,,0.00,WeatherDisplay:10.37,2013-01-13 08:59:00,
2013-01-13 02:04:00,-5.6,-9.9,30.07,SW,225,2.0,2.3,81,0.00,CLR,,0.00,WeatherDisplay:10.37,2013-01-13 09:04:00,
2013-01-13 02:09:00,-5.6,-9.7,30.07,SW,225,1.6,1.7,82,0.00,CLR,,0.00,WeatherDisplay:10.37,2013-01-13 09:09:00,
2013-01-13 02:14:00,-5.6,-9.4,30.08,SW,225,1.8,2.2,83,0.00,CLR,,0.00,WeatherDisplay:10.37,2013-01-13 09:14:00,
2013-01-13 02:19:00,-5.8,-9.6,30.08,SW,225,2.7,2.7,83,0.00,CLR,,0.00,WeatherDisplay:10.37,2013-01-13 09:19:00,
2013-01-13 02:24:00,-5.6,-9.4,30.08,SW,225,3.2,3.5,83,0.00,CLR,,0.00,WeatherDisplay:10.37,2013-01-13 09:24:00,
2013-01-13 02:29:00,-5.6,-9.7,30.07,SW,225,2.9,3.5,82,0.00,CLR,,0.00,WeatherDisplay:10.37,2013-01-13 09:29:00,
2013-01-13 02:34:00,-5.6,-9.7,30.07,SW,225,2.4,3.5,82,0.00,CLR,,0.00,WeatherDisplay:10.37,2013-01-13 09:34:00,
2013-01-13 02:39:00,-5.6,-9.7,30.07,WSW,248,3.2,3.7,82,0.00,CLR,,0.00,WeatherDisplay:10.37,2013-01-13 09:39:00,
2013-01-13 02:44:00,-5.6,-9.7,30.07,WSW,248,2.9,3.5,82,0.00,CLR,,0.00,WeatherDisplay:10.37,2013-01-13 09:44:00,
2013-01-13 02:49:00,-6.0,-10.1,30.07,SW,225,2.5,3.5,82,0.00,CLR,,0.00,WeatherDisplay:10.37,2013-01-13 09:49:00,
2013-01-13 02:54:00,-6.2,-10.3,30.07,WSW,248,2.5,2.7,82,0.00,CLR,,0.00,WeatherDisplay:10.37,2013-01-13 09:54:00,
2013-01-13 02:59:00,-6.5,-10.6,30.07,West,270,3.4,3.5,82,0.00,CLR,,0.00,WeatherDisplay:10.37,2013-01-13 09:59:00,
2013-01-13 03:04:00,-6.5,-10.6,30.07,SSW,202,3.0,3.5,82,0.00,CLR,,0.00,WeatherDisplay:10.37,2013-01-13 10:04:00,
2013-01-13 03:09:00,-6.3,-10.4,30.07,WSW,248,2.9,3.5,82,0.00,CLR,,0.00,WeatherDisplay:10.37,2013-01-13 10:09:00,
2013-01-13 03:14:00,-6.3,-10.4,30.06,WSW,248,2.7,2.7,82,0.00,CLR,,0.00,WeatherDisplay:10.37,2013-01-13 10:14:00,
2013-01-13 03:19:00,-6.5,-10.6,30.06,WSW,248,2.8,2.8,82,0.00,CLR,,0.00,WeatherDisplay:10.37,2013-01-13 10:19:00,
2013-01-13 03:24:00,-6.3,-10.4,30.06,West,270,3.7,4.2,82,0.00,CLR,,0.00,WeatherDisplay:10.37,2013-01-13 10:24:00,
2013-01-13 03:29:00,-6.3,-10.4,30.06,SW,225,4.2,4.6,82,0.00,CLR,,0.00,WeatherDisplay:10.37,2013-01-13 10:29:00,
2013-01-13 03:35:00,-6.5,-10.6,30.06,WSW,248,3.8,4.6,82,0.00,CLR,,0.00,WeatherDisplay:10.37,2013-01-13 10:35:00,
2013-01-13 03:40:00,-5.4,-9.5,30.06,WSW,248,4.5,4.6,82,0.00,CLR,,0.00,WeatherDisplay:10.37,2013-01-13 10:40:00,
2013-01-13 03:45:00,-5.1,-9.4,30.06,WSW,248,3.5,4.6,81,0.00,CLR,,0.00,WeatherDisplay:10.37,2013-01-13 10:45:00,
2013-01-13 03:50:00,-5.1,-9.4,30.05,WSW,248,3.8,4.6,81,0.00,CLR,,0.00,WeatherDisplay:10.37,2013-01-13 10:50:00,
2013-01-13 03:55:00,-4.9,-9.2,30.05,WSW,248,3.8,4.6,81,0.00,CLR,,0.00,WeatherDisplay:10.37,2013-01-13 10:55:00,
2013-01-13 04:00:00,-5.8,-10.4,30.05,WSW,248,3.7,4.6,80,0.00,CLR,,0.00,WeatherDisplay:10.37,2013-01-13 11:00:00,
2013-01-13 04:05:00,-5.6,-10.2,30.05,SW,225,3.9,4.6,80,0.00,CLR,,0.00,WeatherDisplay:10.37,2013-01-13 11:05:00,
2013-01-13 04:10:00,-6.0,-10.6,30.05,SW,225,3.5,4.6,80,0.00,CLR,,0.00,WeatherDisplay:10.37,2013-01-13 11:10:00,
2013-01-13 04:15:00,-6.2,-10.8,30.04,WSW,248,4.9,5.8,80,0.00,CLR,,0.00,WeatherDisplay:10.37,2013-01-13 11:15:00,
2013-01-13 04:20:00,-6.0,-10.6,30.04,WSW,248,4.6,5.8,80,0.00,CLR,,0.00,WeatherDisplay:10.37,2013-01-13 11:20:00,
2013-01-13 04:25:00,-6.0,-10.6,30.04,SW,225,5.1,5.8,80,0.00,CLR,,0.00,WeatherDisplay:10.37,2013-01-13 11:25:00,
2013-01-13 04:30:00,-6.3,-10.9,30.04,SW,225,3.9,4.6,80,0.00,CLR,,0.00,WeatherDisplay:10.37,2013-01-13 11:30:00,
2013-01-13 04:35:00,-6.7,-11.3,30.04,WSW,248,5.2,5.8,80,0.00,CLR,,0.00,WeatherDisplay:10.37,2013-01-13 11:35:00,
2013-01-13 04:40:00,-7.1,-11.6,30.04,WSW,248,6.1,6.3,80,0.00,CLR,,0.00,WeatherDisplay:10.37,2013-01-13 11:40:00,
2013-01-13 04:45:00,-7.4,-11.9,30.04,SW,225,5.6,5.8,80,0.00,CLR,,0.00,WeatherDisplay:10.37,2013-01-13 11:45:00,
2013-01-13 04:50:00,-7.6,-12.1,30.04,SW,225,4.0,4.6,80,0.00,CLR,,0.00,WeatherDisplay:10.37,2013-01-13 11:50:00,
2013-01-13 04:55:00,-7.8,-12.3,30.04,SW,225,3.9,4.6,80,0.00,CLR,,0.00,WeatherDisplay:10.37,2013-01-13 11:55:00,
2013-01-13 05:00:00,-7.6,-11.9,30.04,WSW,248,3.9,4.6,81,0.00,CLR,,0.00,WeatherDisplay:10.37,2013-01-13 12:00:00,
2013-01-13 05:05:00,-7.4,-11.7,30.04,WSW,248,3.6,3.6,81,0.00,CLR,,0.00,WeatherDisplay:10.37,2013-01-13 12:05:00,
2013-01-13 05:10:00,-7.1,-11.4,30.04,WSW,248,2.9,3.5,81,0.00,CLR,,0.00,WeatherDisplay:10.37,2013-01-13 12:10:00,
2013-01-13 05:15:00,-6.3,-10.6,30.04,WSW,248,3.1,3.7,81,0.00,OVC,,0.00,WeatherDisplay:10.37,2013-01-13 12:15:00,
2013-01-13 05:20:00,-5.6,-9.7,30.04,WSW,248,3.2,3.7,82,0.00,OVC,,0.00,WeatherDisplay:10.37,2013-01-13 12:20:00,
2013-01-13 05:25:00,-5.3,-9.4,30.04,SW,225,3.1,3.5,82,0.00,OVC,,0.00,WeatherDisplay:10.37,2013-01-13 12:25:00,
2013-01-13 05:30:00,-5.1,-9.2,30.04,SSW,202,4.1,4.6,82,0.00,OVC,,0.00,WeatherDisplay:10.37,2013-01-13 12:30:00,
2013-01-13 05:35:00,-4.7,-8.8,30.04,WSW,248,3.2,3.5,82,0.00,OVC,,0.00,WeatherDisplay:10.37,2013-01-13 12:35:00,
2013-01-13 05:40:00,-4.4,-8.5,30.04,SW,225,4.0,4.7,82,0.00,OVC,,0.00,WeatherDisplay:10.37,2013-01-13 12:40:00,
2013-01-13 05:45:00,-3.6,-7.7,30.04,SW,225,2.7,3.2,82,0.00,OVC,,0.00,WeatherDisplay:10.37,2013-01-13 12:45:00,
2013-01-13 05:50:00,-3.6,-7.7,30.04,SW,225,2.9,3.5,82,0.00,OVC,,0.00,WeatherDisplay:10.37,2013-01-13 12:50:00,
2013-01-13 05:55:00,-3.3,-7.4,30.04,WSW,248,2.2,2.7,82,0.00,OVC,,0.00,WeatherDisplay:10.37,2013-01-13 12:55:00,
2013-01-13 06:00:00,-2.2,-5.6,30.04,SE,135,1.2,1.7,85,0.00,OVC,,0.00,WeatherDisplay:10.37,2013-01-13 13:00:00,
2013-01-13 06:05:00,-2.4,-6.3,30.03,WSW,248,1.4,1.7,83,0.00,OVC,,0.00,WeatherDisplay:10.37,2013-01-13 13:05:00,
2013-01-13 06:10:00,-1.7,-5.6,30.03,WSW,248,3.2,3.5,83,0.00,OVC,,0.00,WeatherDisplay:10.37,2013-01-13 13:10:00,
2013-01-13 06:15:00,-1.3,-5.2,30.04,WSW,248,2.4,3.2,83,0.00,OVC,,0.00,WeatherDisplay:10.37,2013-01-13 13:15:00,
2013-01-13 06:20:00,-0.9,-4.8,30.04,SW,225,5.1,5.8,83,0.00,OVC,,0.00,WeatherDisplay:10.37,2013-01-13 13:20:00,
2013-01-13 06:25:00,-0.8,-4.7,30.04,WSW,248,5.2,5.8,83,0.00,OVC,,0.00,WeatherDisplay:10.37,2013-01-13 13:25:00,
2013-01-13 06:30:00,-0.8,-5.0,30.04,SW,225,4.6,5.8,82,0.00,OVC,,0.00,WeatherDisplay:10.37,2013-01-13 13:30:00,
2013-01-13 06:35:00,-0.8,-4.7,30.04,West,270,3.4,4.6,83,0.00,OVC,,0.00,WeatherDisplay:10.37,2013-01-13 13:35:00,
2013-01-13 06:40:00,-0.2,-4.1,30.04,SW,225,2.6,3.5,83,0.00,OVC,,0.00,WeatherDisplay:10.37,2013-01-13 13:40:00,
2013-01-13 06:45:00,0.1,-3.8,30.04,SW,225,2.2,2.3,83,0.00,OVC,,0.00,WeatherDisplay:10.37,2013-01-13 13:45:00,
2013-01-13 06:50:00,0.3,-3.4,30.04,WSW,248,2.7,3.7,84,0.00,OVC,,0.00,WeatherDisplay:10.37,2013-01-13 13:50:00,
2013-01-13 06:55:00,0.5,-3.2,30.04,West,270,2.3,4.6,84,0.00,OVC,,0.00,WeatherDisplay:10.37,2013-01-13 13:55:00,
2013-01-13 07:00:00,0.7,-3.0,30.04,SW,225,2.4,2.7,84,0.00,OVC,,0.00,WeatherDisplay:10.37,2013-01-13 14:00:00,
2013-01-13 07:05:00,0.5,-3.2,30.05,SW,225,2.3,2.7,84,0.00,OVC,,0.00,WeatherDisplay:10.37,2013-01-13 14:05:00,
2013-01-13 07:10:00,0.7,-2.7,30.05,WSW,248,1.7,2.2,85,0.00,OVC,,0.00,WeatherDisplay:10.37,2013-01-13 14:10:00,
2013-01-13 07:15:00,1.4,-1.6,30.05,WSW,248,1.9,2.3,87,0.00,OVC,,0.00,WeatherDisplay:10.37,2013-01-13 14:15:00,
2013-01-13 07:20:00,1.0,-2.7,30.05,SSW,202,1.7,2.3,84,0.00,OVC,,0.00,WeatherDisplay:10.37,2013-01-13 14:20:00,
2013-01-13 07:25:00,1.2,-2.5,30.05,WSW,248,1.7,2.3,84,0.00,OVC,,0.00,WeatherDisplay:10.37,2013-01-13 14:25:00,
2013-01-13 07:30:00,1.2,-2.5,30.05,WSW,248,4.1,4.7,84,0.00,OVC,,0.00,WeatherDisplay:10.37,2013-01-13 14:30:00,
2013-01-13 07:35:00,1.4,-2.3,30.05,WNW,292,2.3,2.3,84,0.00,OVC,,0.00,WeatherDisplay:10.37,2013-01-13 14:35:00,
2013-01-13 07:40:00,1.9,-1.6,30.05,WNW,292,2.5,3.5,85,0.00,OVC,,0.00,WeatherDisplay:10.37,2013-01-13 14:40:00,
2013-01-13 07:45:00,2.1,-1.6,30.05,WSW,248,2.5,2.7,84,0.00,OVC,,0.00,WeatherDisplay:10.37,2013-01-13 14:45:00,
2013-01-13 07:50:00,2.5,-1.2,30.06,WSW,248,2.7,3.5,84,0.00,OVC,,0.00,WeatherDisplay:10.37,2013-01-13 14:50:00,
2013-01-13 07:55:00,2.3,-1.7,30.06,WSW,248,3.2,3.5,83,0.00,OVC,,0.00,WeatherDisplay:10.37,2013-01-13 14:55:00,
2013-01-13 08:00:00,2.3,-1.7,30.06,WSW,248,3.6,3.7,83,0.00,OVC,,0.00,WeatherDisplay:10.37,2013-01-13 15:00:00,
2013-01-13 08:05:00,2.5,-1.5,30.07,SSW,202,3.6,5.8,83,0.00,OVC,,0.00,WeatherDisplay:10.37,2013-01-13 15:05:00,
2013-01-13 08:10:00,2.5,-1.5,30.07,WSW,248,3.4,3.5,83,0.00,OVC,,0.00,WeatherDisplay:10.37,2013-01-13 15:10:00,
2013-01-13 08:15:00,2.5,-1.5,30.06,WSW,248,2.9,3.7,83,0.00,OVC,,0.00,WeatherDisplay:10.37,2013-01-13 15:15:00,
2013-01-13 08:20:00,2.7,-1.3,30.06,West,270,3.4,3.5,83,0.00,OVC,,0.00,WeatherDisplay:10.37,2013-01-13 15:20:00,
2013-01-13 08:25:00,3.0,-1.0,30.07,WSW,248,5.8,6.3,83,0.00,OVC,,0.00,WeatherDisplay:10.37,2013-01-13 15:25:00,
2013-01-13 08:30:00,3.2,-0.8,30.07,WSW,248,5.5,6.3,83,0.00,OVC,,0.00,WeatherDisplay:10.37,2013-01-13 15:30:00,
2013-01-13 08:35:00,3.2,-0.8,30.07,West,270,4.0,8.1,83,0.00,OVC,,0.00,WeatherDisplay:10.37,2013-01-13 15:35:00,
2013-01-13 08:41:00,3.6,-0.4,30.07,WNW,292,5.5,9.2,83,0.00,OVC,,0.00,WeatherDisplay:10.37,2013-01-13 15:41:00,
2013-01-13 08:46:00,3.6,-0.4,30.07,WNW,292,8.5,10.4,83,0.00,OVC,,0.00,WeatherDisplay:10.37,2013-01-13 15:46:00,
2013-01-13 08:51:00,3.6,-0.4,30.07,West,270,6.5,8.3,83,0.00,OVC,,0.00,WeatherDisplay:10.37,2013-01-13 15:51:00,
2013-01-13 08:56:00,3.6,-0.4,30.07,West,270,9.2,10.9,83,0.00,OVC,,0.00,WeatherDisplay:10.37,2013-01-13 15:56:00,
2013-01-13 09:01:00,3.6,-0.7,30.07,WNW,292,7.7,9.2,82,0.00,OVC,,0.00,WeatherDisplay:10.37,2013-01-13 16:01:00,
2013-01-13 09:06:00,3.7,-0.6,30.07,SSW,202,5.7,6.9,82,0.00,OVC,,0.00,WeatherDisplay:10.37,2013-01-13 16:06:00,
2013-01-13 09:11:00,3.4,-0.9,30.07,West,270,6.6,6.9,82,0.00,OVC,,0.00,WeatherDisplay:10.37,2013-01-13 16:11:00,
2013-01-13 09:16:00,3.2,-1.1,30.07,WSW,248,5.1,6.9,82,0.00,OVC,,0.00,WeatherDisplay:10.37,2013-01-13 16:16:00,
2013-01-13 09:21:00,3.0,-1.3,30.07,West,270,3.7,5.8,82,0.00,OVC,,0.00,WeatherDisplay:10.37,2013-01-13 16:21:00,
2013-01-13 09:26:00,3.7,-0.8,30.07,SW,225,4.0,7.3,81,0.00,OVC,,0.00,WeatherDisplay:10.37,2013-01-13 16:26:00,
2013-01-13 09:31:00,3.9,-0.9,30.07,WSW,248,7.1,11.5,80,0.00,OVC,,0.00,WeatherDisplay:10.37,2013-01-13 16:31:00,
2013-01-13 09:36:00,4.1,-0.7,30.07,West,270,5.0,5.8,80,0.00,OVC,,0.00,WeatherDisplay:10.37,2013-01-13 16:36:00,
2013-01-13 09:41:00,4.8,-0.6,30.08,West,270,8.3,9.2,78,0.00,BKN,,0.00,WeatherDisplay:10.37,2013-01-13 16:41:00,
2013-01-13 09:46:00,3.9,-1.4,30.08,SW,225,10.1,13.8,78,0.00,BKN,,0.00,WeatherDisplay:10.37,2013-01-13 16:46:00,
2013-01-13 09:51:00,3.9,-1.4,30.08,North,360,8.2,10.9,78,0.00,BKN,,0.00,WeatherDisplay:10.37,2013-01-13 16:51:00,
2013-01-13 09:56:00,3.4,-1.9,30.08,West,270,9.4,11.5,78,0.00,BKN,,0.00,WeatherDisplay:10.37,2013-01-13 16:56:00,
2013-01-13 10:01:00,3.0,-2.3,30.08,West,270,10.4,12.7,78,0.00,OVC,,0.00,WeatherDisplay:10.37,2013-01-13 17:01:00,
2013-01-13 10:06:00,3.0,-2.3,30.08,NNE,22,9.5,10.4,78,0.00,OVC,,0.00,WeatherDisplay:10.37,2013-01-13 17:06:00,
2013-01-13 10:11:00,3.0,-2.3,30.08,West,270,10.6,10.9,78,0.00,OVC,,0.00,WeatherDisplay:10.37,2013-01-13 17:11:00,
2013-01-13 10:16:00,3.0,-2.3,30.08,West,270,8.2,9.4,78,0.00,OVC,,0.00,WeatherDisplay:10.37,2013-01-13 17:16:00,
2013-01-13 10:21:00,2.7,-2.6,30.08,West,270,8.3,10.4,78,0.00,OVC,,0.00,WeatherDisplay:10.37,2013-01-13 17:21:00,
2013-01-13 10:26:00,2.8,-2.5,30.08,WSW,248,6.8,8.3,78,0.00,OVC,,0.00,WeatherDisplay:10.37,2013-01-13 17:26:00,
2013-01-13 10:31:00,2.7,-2.9,30.08,WSW,248,8.9,10.4,77,0.00,OVC,,0.00,WeatherDisplay:10.37,2013-01-13 17:31:00,
2013-01-13 10:36:00,2.8,-2.8,30.08,West,270,6.5,9.2,77,0.00,OVC,,0.00,WeatherDisplay:10.37,2013-01-13 17:36:00,
2013-01-13 10:41:00,2.7,-2.9,30.08,West,270,7.1,9.2,77,0.00,OVC,,0.00,WeatherDisplay:10.37,2013-01-13 17:41:00,
2013-01-13 10:46:00,2.7,-3.1,30.08,West,270,6.9,9.2,76,0.00,OVC,,0.00,WeatherDisplay:10.37,2013-01-13 17:46:00,
2013-01-13 10:51:00,2.5,-3.3,30.08,WSW,248,11.2,13.8,76,0.00,OVC,,0.00,WeatherDisplay:10.37,2013-01-13 17:51:00,
2013-01-13 10:56:00,1.8,-3.7,30.08,West,270,9.9,10.4,77,0.00,OVC,,0.00,WeatherDisplay:10.37,2013-01-13 17:56:00,
2013-01-13 11:01:00,2.3,-3.0,30.08,West,270,10.0,10.9,78,0.00,OVC,,0.00,WeatherDisplay:10.37,2013-01-13 18:01:00,
2013-01-13 11:06:00,2.5,-3.1,30.08,WSW,248,7.4,10.4,77,0.00,OVC,,0.00,WeatherDisplay:10.37,2013-01-13 18:06:00,
2013-01-13 11:11:00,2.5,-3.1,30.08,West,270,10.7,11.5,77,0.00,OVC,,0.00,WeatherDisplay:10.37,2013-01-13 18:11:00,
2013-01-13 11:16:00,2.5,-3.3,30.08,SSE,158,12.0,15.0,76,0.00,OVC,,0.00,WeatherDisplay:10.37,2013-01-13 18:16:00,
2013-01-13 11:21:00,2.5,-3.3,30.08,West,270,7.9,9.2,76,0.00,OVC,,0.00,WeatherDisplay:10.37,2013-01-13 18:21:00,
2013-01-13 11:26:00,2.5,-3.3,30.08,West,270,8.3,8.3,76,0.00,OVC,,0.00,WeatherDisplay:10.37,2013-01-13 18:26:00,
2013-01-13 11:31:00,2.5,-3.1,30.08,West,270,11.6,12.7,77,0.00,OVC,,0.00,WeatherDisplay:10.37,2013-01-13 18:31:00,
2013-01-13 11:36:00,2.5,-3.1,30.08,West,270,6.8,8.1,77,0.00,OVC,,0.00,WeatherDisplay:10.37,2013-01-13 18:36:00,
2013-01-13 11:41:00,2.7,-2.9,30.08,WNW,292,7.2,9.2,77,0.00,OVC,,0.00,WeatherDisplay:10.37,2013-01-13 18:41:00,
2013-01-13 11:46:00,2.8,-2.8,30.08,SW,225,5.6,8.1,77,0.00,OVC,,0.00,WeatherDisplay:10.37,2013-01-13 18:46:00,
2013-01-13 11:51:00,2.7,-3.1,30.08,West,270,8.7,9.2,76,0.00,OVC,,0.00,WeatherDisplay:10.37,2013-01-13 18:51:00,
2013-01-13 11:56:00,2.7,-3.1,30.08,SW,225,7.0,10.4,76,0.00,OVC,,0.00,WeatherDisplay:10.37,2013-01-13 18:56:00,
2013-01-13 12:01:00,2.8,-3.1,30.08,WNW,292,7.9,11.5,76,0.00,-SN,,0.00,WeatherDisplay:10.37,2013-01-13 19:01:00,
2013-01-13 12:06:00,3.0,-2.9,30.08,SSE,158,7.4,7.4,76,0.00,-SN,,0.00,WeatherDisplay:10.37,2013-01-13 19:06:00,
2013-01-13 12:11:00,3.2,-2.9,30.08,West,270,8.5,11.5,75,0.00,-SN,,0.00,WeatherDisplay:10.37,2013-01-13 19:11:00,
2013-01-13 12:16:00,3.2,-2.9,30.07,NNW,338,8.2,10.4,75,0.00,-SN,,0.00,WeatherDisplay:10.37,2013-01-13 19:16:00,
2013-01-13 12:21:00,3.4,-2.5,30.07,West,270,10.2,13.5,76,0.00,-SN,,0.00,WeatherDisplay:10.37,2013-01-13 19:21:00,
2013-01-13 12:26:00,3.4,-2.2,30.07,West,270,7.3,8.8,77,0.00,-SN,,0.00,WeatherDisplay:10.37,2013-01-13 19:26:00,
2013-01-13 12:31:00,3.4,-2.2,30.07,West,270,10.5,12.4,77,0.00,-SN,,0.00,WeatherDisplay:10.37,2013-01-13 19:31:00,
2013-01-13 12:36:00,3.6,-2.0,30.07,NW,315,8.6,12.7,77,0.00,-SN,,0.00,WeatherDisplay:10.37,2013-01-13 19:36:00,
2013-01-13 12:41:00,3.9,-1.4,30.07,West,270,8.3,10.4,78,0.00,-SN,,0.00,WeatherDisplay:10.37,2013-01-13 19:41:00,
2013-01-13 12:46:00,3.6,-2.0,30.07,West,270,7.5,8.1,77,0.00,-SN,,0.00,WeatherDisplay:10.37,2013-01-13 19:46:00,
2013-01-13 12:51:00,4.1,-1.5,30.07,WNW,292,7.3,10.4,77,0.00,-SN,,0.00,WeatherDisplay:10.37,2013-01-13 19:51:00,
2013-01-13 12:56:00,4.1,-1.5,30.07,SW,225,9.4,9.4,77,0.00,-SN,,0.00,WeatherDisplay:10.37,2013-01-13 19:56:00,
2013-01-13 13:01:00,4.5,-1.1,30.07,WSW,248,6.2,9.2,77,0.00,-SN,,0.00,WeatherDisplay:10.37,2013-01-13 20:01:00,
2013-01-13 13:06:00,4.5,-1.1,30.07,WSW,248,5.0,6.9,77,0.00,-SN,,0.00,WeatherDisplay:10.37,2013-01-13 20:06:00,
2013-01-13 13:11:00,4.6,-1.0,30.07,West,270,6.9,6.9,77,0.00,-SN,,0.00,WeatherDisplay:10.37,2013-01-13 20:11:00,
2013-01-13 13:16:00,4.5,-1.4,30.07,WSW,248,8.2,8.2,76,0.00,-SN,,0.00,WeatherDisplay:10.37,2013-01-13 20:16:00,
2013-01-13 13:21:00,4.1,-1.2,30.07,SW,225,5.3,7.8,78,0.00,-SN,,0.00,WeatherDisplay:10.37,2013-01-13 20:21:00,
2013-01-13 13:26:00,4.1,-1.5,30.07,West,270,8.1,10.4,77,0.00,-SN,,0.00,WeatherDisplay:10.37,2013-01-13 20:26:00,
2013-01-13 13:31:00,4.8,-1.1,30.07,WNW,292,8.4,9.2,76,0.00,-SN,,0.00,WeatherDisplay:10.37,2013-01-13 20:31:00,
2013-01-13 13:36:00,4.3,-1.9,30.07,NE,45,7.6,10.4,75,0.00,-SN,,0.00,WeatherDisplay:10.37,2013-01-13 20:36:00,
2013-01-13 13:41:00,4.8,-1.1,30.07,West,270,6.0,6.9,76,0.00,-SN,,0.00,WeatherDisplay:10.37,2013-01-13 20:41:00,
2013-01-13 13:47:00,4.5,-1.4,30.07,WNW,292,7.6,9.2,76,0.00,-SN,,0.00,WeatherDisplay:10.37,2013-01-13 20:47:00,
2013-01-13 13:52:00,4.5,-1.4,30.07,West,270,6.6,10.4,76,0.00,-SN,,0.00,WeatherDisplay:10.37,2013-01-13 20:52:00,
2013-01-13 13:57:00,5.0,-1.2,30.07,SW,225,5.1,8.1,75,0.00,-SN,,0.00,WeatherDisplay:10.37,2013-01-13 20:57:00,
2013-01-13 14:02:00,5.0,-1.2,30.08,WSW,248,5.2,8.1,75,0.00,-SN,,0.00,WeatherDisplay:10.37,2013-01-13 21:02:00,
2013-01-13 14:07:00,4.8,-1.4,30.08,WSW,248,7.7,9.2,75,0.00,-SN,,0.00,WeatherDisplay:10.37,2013-01-13 21:07:00,
2013-01-13 14:12:00,4.8,-1.4,30.08,West,270,6.3,6.3,75,0.00,-SN,,0.00,WeatherDisplay:10.37,2013-01-13 21:12:00,
2013-01-13 14:17:00,5.2,-1.0,30.08,West,270,6.8,6.9,75,0.00,-SN,,0.00,WeatherDisplay:10.37,2013-01-13 21:17:00,
2013-01-13 14:22:00,5.2,-1.0,30.08,West,270,6.8,6.9,75,0.00,-SN,,0.00,WeatherDisplay:10.37,2013-01-13 21:22:00,
2013-01-13 14:27:00,4.6,-1.3,30.08,West,270,7.5,10.4,76,0.00,-SN,,0.00,WeatherDisplay:10.37,2013-01-13 21:27:00,
2013-01-13 14:32:00,4.5,-1.4,30.08,West,270,6.8,8.1,76,0.00,-SN,,0.00,WeatherDisplay:10.37,2013-01-13 21:32:00,
2013-01-13 14:37:00,4.6,-1.3,30.08,NW,315,7.0,8.1,76,0.00,-SN,,0.00,WeatherDisplay:10.37,2013-01-13 21:37:00,
2013-01-13 14:42:00,4.6,-1.3,30.09,West,270,4.4,5.8,76,0.00,-SN,,0.00,WeatherDisplay:10.37,2013-01-13 21:42:00,
2013-01-13 14:47:00,4.6,-1.3,30.09,West,270,9.6,10.4,76,0.00,-SN,,0.00,WeatherDisplay:10.37,2013-01-13 21:47:00,
2013-01-13 14:52:00,4.6,-1.0,30.09,WNW,292,5.8,8.1,77,0.00,-SN,,0.00,WeatherDisplay:10.37,2013-01-13 21:52:00,
2013-01-13 14:57:00,5.2,-0.4,30.09,West,270,4.0,4.6,77,0.00,-SN,,0.00,WeatherDisplay:10.37,2013-01-13 21:57:00,
2013-01-13 15:02:00,4.8,-0.8,30.09,West,270,6.6,9.2,77,0.00,-SN,,0.00,WeatherDisplay:10.37,2013-01-13 22:02:00,
2013-01-13 15:07:00,4.8,-0.8,30.08,WSW,248,8.0,9.2,77,0.00,-SN,,0.00,WeatherDisplay:10.37,2013-01-13 22:07:00,
2013-01-13 15:12:00,4.8,-0.6,30.08,WNW,292,7.7,9.2,78,0.00,OVC,,0.00,WeatherDisplay:10.37,2013-01-13 22:12:00,
2013-01-13 15:17:00,4.5,-0.8,30.09,NW,315,6.9,8.1,78,0.00,OVC,,0.00,WeatherDisplay:10.37,2013-01-13 22:17:00,
2013-01-13 15:22:00,4.6,-0.8,30.09,West,270,7.0,8.1,78,0.00,OVC,,0.00,WeatherDisplay:10.37,2013-01-13 22:22:00,
2013-01-13 15:27:00,4.5,-0.8,30.09,WSW,248,6.9,9.2,78,0.00,OVC,,0.00,WeatherDisplay:10.37,2013-01-13 22:27:00,
2013-01-13 15:32:00,4.8,-0.6,30.09,West,270,4.8,6.3,78,0.00,OVC,,0.00,WeatherDisplay:10.37,2013-01-13 22:32:00,
2013-01-13 15:37:00,4.6,-0.8,30.09,WSW,248,7.5,9.2,78,0.00,OVC,,0.00,WeatherDisplay:10.37,2013-01-13 22:37:00,
2013-01-13 15:42:00,4.6,-0.8,30.09,West,270,8.8,10.4,78,0.00,OVC,,0.00,WeatherDisplay:10.37,2013-01-13 22:42:00,
2013-01-13 15:47:00,4.5,-0.8,30.09,WSW,248,5.6,6.9,78,0.00,OVC,,0.00,WeatherDisplay:10.37,2013-01-13 22:47:00,
2013-01-13 15:52:00,4.6,-0.8,30.09,West,270,6.9,8.1,78,0.00,OVC,,0.00,WeatherDisplay:10.37,2013-01-13 22:52:00,
2013-01-13 15:57:00,4.6,-0.8,30.09,NNW,338,5.8,7.3,78,0.00,OVC,,0.00,WeatherDisplay:10.37,2013-01-13 22:57:00,
2013-01-13 16:02:00,4.6,-0.8,30.10,West,270,7.1,9.2,78,0.00,OVC,,0.00,WeatherDisplay:10.37,2013-01-13 23:02:00,
2013-01-13 16:07:00,4.6,-0.8,30.10,West,270,8.5,9.4,78,0.00,OVC,,0.00,WeatherDisplay:10.37,2013-01-13 23:07:00,
2013-01-13 16:12:00,4.6,-0.8,30.10,West,270,5.3,6.9,78,0.00,OVC,,0.00,WeatherDisplay:10.37,2013-01-13 23:12:00,
2013-01-13 16:17:00,4.6,-0.8,30.10,WSW,248,6.6,8.3,78,0.00,OVC,,0.00,WeatherDisplay:10.37,2013-01-13 23:17:00,
2013-01-13 16:22:00,4.6,-0.8,30.10,WNW,292,6.6,6.9,78,0.00,OVC,,0.00,WeatherDisplay:10.37,2013-01-13 23:22:00,
2013-01-13 16:27:00,4.6,-0.8,30.10,WSW,248,5.2,8.1,78,0.00,OVC,,0.00,WeatherDisplay:10.37,2013-01-13 23:27:00,
2013-01-13 16:32:00,4.6,-0.8,30.10,WNW,292,7.9,10.4,78,0.00,OVC,,0.00,WeatherDisplay:10.37,2013-01-13 23:32:00,
2013-01-13 16:37:00,4.6,-0.8,30.09,WNW,292,6.6,9.2,78,0.00,OVC,,0.00,WeatherDisplay:10.37,2013-01-13 23:37:00,
2013-01-13 16:42:00,4.5,-0.8,30.09,WNW,292,6.3,7.8,78,0.00,OVC,,0.00,WeatherDisplay:10.37,2013-01-13 23:42:00,
2013-01-13 16:47:00,4.5,-0.8,30.09,West,270,7.1,8.8,78,0.00,OVC,,0.00,WeatherDisplay:10.37,2013-01-13 23:47:00,
2013-01-13 16:52:00,4.5,-0.6,30.09,WSW,248,6.7,9.2,79,0.00,OVC,,0.00,WeatherDisplay:10.37,2013-01-13 23:52:00,
2013-01-13 16:57:00,4.5,-0.6,30.09,WSW,248,7.1,9.9,79,0.00,OVC,,0.00,WeatherDisplay:10.37,2013-01-13 23:57:00,
2013-01-13 17:02:00,4.5,-0.6,30.09,SW,225,7.3,9.2,79,0.00,OVC,,0.00,WeatherDisplay:10.37,2013-01-14 00:02:00,
2013-01-13 17:07:00,4.5,-0.6,30.09,SSW,202,5.8,5.8,79,0.00,OVC,,0.00,WeatherDisplay:10.37,2013-01-14 00:07:00,
2013-01-13 17:12:00,4.3,-0.8,30.09,NW,315,7.1,7.8,79,0.00,OVC,,0.00,WeatherDisplay:10.37,2013-01-14 00:12:00,
2013-01-13 17:17:00,4.3,-0.8,30.09,West,270,3.8,6.9,79,0.00,OVC,,0.00,WeatherDisplay:10.37,2013-01-14 00:17:00,
2013-01-13 17:22:00,4.1,-1.0,30.09,West,270,4.5,5.8,79,0.00,OVC,,0.00,WeatherDisplay:10.37,2013-01-14 00:22:00,
2013-01-13 17:27:00,3.7,-1.4,30.09,West,270,6.0,6.9,79,0.00,OVC,,0.00,WeatherDisplay:10.37,2013-01-14 00:27:00,
2013-01-13 17:32:00,3.6,-1.5,30.09,West,270,6.1,8.1,79,0.00,OVC,,0.00,WeatherDisplay:10.37,2013-01-14 00:32:00,
2013-01-13 17:37:00,3.2,-1.8,30.09,SW,225,4.0,4.6,79,0.00,OVC,,0.00,WeatherDisplay:10.37,2013-01-14 00:37:00,
2013-01-13 17:42:00,2.8,-2.0,30.09,WSW,248,4.1,4.6,80,0.00,OVC,,0.00,WeatherDisplay:10.37,2013-01-14 00:42:00,
2013-01-13 17:47:00,2.1,-2.7,30.09,SW,225,3.0,3.7,80,0.00,OVC,,0.00,WeatherDisplay:10.37,2013-01-14 00:47:00,
2013-01-13 17:52:00,1.8,-2.7,30.09,WSW,248,2.8,3.2,81,0.00,OVC,,0.00,WeatherDisplay:10.37,2013-01-14 00:52:00,
2013-01-13 17:57:00,1.4,-3.1,30.09,WSW,248,3.3,3.5,81,0.00,OVC,,0.00,WeatherDisplay:10.37,2013-01-14 00:57:00,
2013-01-13 18:02:00,1.0,-3.2,30.09,SW,225,3.5,3.7,82,0.00,FEW,,0.00,WeatherDisplay:10.37,2013-01-14 01:02:00,
2013-01-13 18:07:00,1.0,-3.2,30.09,WNW,292,2.6,3.5,82,0.00,FEW,,0.00,WeatherDisplay:10.37,2013-01-14 01:07:00,
2013-01-13 18:12:00,1.0,-3.2,30.09,West,270,2.6,3.2,82,0.00,FEW,,0.00,WeatherDisplay:10.37,2013-01-14 01:12:00,
2013-01-13 18:17:00,1.0,-3.2,30.09,West,270,2.2,2.3,82,0.00,FEW,,0.00,WeatherDisplay:10.37,2013-01-14 01:17:00,
2013-01-13 18:22:00,1.0,-3.2,30.09,SW,225,3.1,3.5,82,0.00,FEW,,0.00,WeatherDisplay:10.37,2013-01-14 01:22:00,
2013-01-13 18:27:00,0.9,-3.3,30.09,West,270,3.6,4.6,82,0.00,FEW,,0.00,WeatherDisplay:10.37,2013-01-14 01:27:00,
2013-01-13 18:32:00,0.9,-3.3,30.09,West,270,3.6,4.6,82,0.00,FEW,,0.00,WeatherDisplay:10.37,2013-01-14 01:32:00,
2013-01-13 18:37:00,0.9,-3.1,30.09,SW,225,3.7,4.6,83,0.00,FEW,,0.00,WeatherDisplay:10.37,2013-01-14 01:37:00,
2013-01-13 18:42:00,0.5,-3.7,30.09,SW,225,3.7,4.6,82,0.00,FEW,,0.00,WeatherDisplay:10.37,2013-01-14 01:42:00,
2013-01-13 18:47:00,0.3,-3.9,30.09,SW,225,3.0,3.5,82,0.00,FEW,,0.00,WeatherDisplay:10.37,2013-01-14 01:47:00,
2013-01-13 18:52:00,0.3,-3.9,30.09,SW,225,2.5,3.5,82,0.00,FEW,,0.00,WeatherDisplay:10.37,2013-01-14 01:52:00,
2013-01-13 18:57:00,0.3,-3.4,30.09,WSW,248,0.0,0.0,84,0.00,FEW,,0.00,WeatherDisplay:10.37,2013-01-14 01:57:00,
2013-01-13 19:02:00,0.0,-3.9,30.09,SW,225,2.3,3.2,83,0.00,OVC,,0.00,WeatherDisplay:10.37,2013-01-14 02:02:00,
2013-01-13 19:07:00,-0.4,-4.3,30.09,WSW,248,2.6,2.6,83,0.00,OVC,,0.00,WeatherDisplay:10.37,2013-01-14 02:07:00,
2013-01-13 19:12:00,-0.6,-4.5,30.09,WSW,248,2.3,2.3,83,0.00,OVC,,0.00,WeatherDisplay:10.37,2013-01-14 02:12:00,
2013-01-13 19:17:00,-0.6,-4.3,30.10,SW,225,2.5,3.5,84,0.00,OVC,,0.00,WeatherDisplay:10.37,2013-01-14 02:17:00,
2013-01-13 19:22:00,-0.6,-4.3,30.10,West,270,3.4,3.7,84,0.00,OVC,,0.00,WeatherDisplay:10.37,2013-01-14 02:22:00,
2013-01-13 19:27:00,-0.6,-4.3,30.09,WSW,248,2.4,3.5,84,0.00,OVC,,0.00,WeatherDisplay:10.37,2013-01-14 02:27:00,
2013-01-13 19:33:00,-0.6,-4.5,30.09,WNW,292,2.7,3.5,83,0.00,OVC,,0.00,WeatherDisplay:10.37,2013-01-14 02:33:00,
2013-01-13 19:38:00,-0.8,-4.7,30.09,WSW,248,3.2,4.2,83,0.00,OVC,,0.00,WeatherDisplay:10.37,2013-01-14 02:38:00,
2013-01-13 19:43:00,-0.9,-4.8,30.09,WSW,248,3.0,3.5,83,0.00,OVC,,0.00,WeatherDisplay:10.37,2013-01-14 02:43:00,
2013-01-13 19:48:00,-0.8,-4.7,30.09,West,270,2.5,3.5,83,0.00,OVC,,0.00,WeatherDisplay:10.37,2013-01-14 02:48:00,
2013-01-13 19:53:00,-0.9,-4.8,30.10,SW,225,3.1,3.5,83,0.00,OVC,,0.00,WeatherDisplay:10.37,2013-01-14 02:53:00,
2013-01-13 19:58:00,-1.1,-5.0,30.10,West,270,3.1,4.6,83,0.00,OVC,,0.00,WeatherDisplay:10.37,2013-01-14 02:58:00,
2013-01-13 20:03:00,-1.1,-5.0,30.10,SW,225,3.5,3.7,83,0.00,OVC,,0.00,WeatherDisplay:10.37,2013-01-14 03:03:00,
2013-01-13 20:08:00,-1.1,-5.0,30.10,SW,225,3.0,3.5,83,0.00,OVC,,0.00,WeatherDisplay:10.37,2013-01-14 03:08:00,
2013-01-13 20:13:00,-1.1,-5.0,30.10,WSW,248,2.3,2.3,83,0.00,OVC,,0.00,WeatherDisplay:10.37,2013-01-14 03:13:00,
2013-01-13 20:18:00,-0.9,-4.8,30.10,West,270,1.2,2.3,83,0.00,OVC,,0.00,WeatherDisplay:10.37,2013-01-14 03:18:00,
2013-01-13 20:23:00,-0.6,-4.5,30.10,SW,225,2.3,2.3,83,0.00,OVC,,0.00,WeatherDisplay:10.37,2013-01-14 03:23:00,
2013-01-13 20:28:00,0.0,-3.2,30.09,South,180,1.2,1.2,86,0.00,OVC,,0.00,WeatherDisplay:10.37,2013-01-14 03:28:00,
2013-01-13 20:33:00,-0.2,-3.9,30.09,SW,225,1.8,3.7,84,0.00,OVC,,0.00,WeatherDisplay:10.37,2013-01-14 03:33:00,
2013-01-13 20:38:00,-0.8,-4.7,30.09,SSE,158,2.4,2.4,83,0.00,OVC,,0.00,WeatherDisplay:10.37,2013-01-14 03:38:00,
2013-01-13 20:43:00,-0.6,-4.5,30.09,WSW,248,2.0,2.3,83,0.00,OVC,,0.00,WeatherDisplay:10.37,2013-01-14 03:43:00,
2013-01-13 20:48:00,-0.6,-4.5,30.09,WSW,248,2.5,2.7,83,0.00,OVC,,0.00,WeatherDisplay:10.37,2013-01-14 03:48:00,
2013-01-13 20:53:00,-0.9,-4.8,30.10,WSW,248,2.3,2.3,83,0.00,OVC,,0.00,WeatherDisplay:10.37,2013-01-14 03:53:00,
2013-01-13 20:58:00,-0.6,-4.5,30.10,WSW,248,2.4,2.7,83,0.00,OVC,,0.00,WeatherDisplay:10.37,2013-01-14 03:58:00,
2013-01-13 21:03:00,-0.8,-4.7,30.10,WSW,248,2.5,2.5,83,0.00,OVC,,0.00,WeatherDisplay:10.37,2013-01-14 04:03:00,
2013-01-13 21:08:00,-0.9,-4.8,30.10,WSW,248,2.1,2.3,83,0.00,OVC,,0.00,WeatherDisplay:10.37,2013-01-14 04:08:00,
2013-01-13 21:13:00,-0.6,-4.5,30.10,WSW,248,1.8,2.3,83,0.00,OVC,,0.00,WeatherDisplay:10.37,2013-01-14 04:13:00,
2013-01-13 21:18:00,-0.4,-3.8,30.10,WNW,292,0.0,1.1,85,0.00,OVC,,0.00,WeatherDisplay:10.37,2013-01-14 04:18:00,
2013-01-13 21:23:00,0.0,-3.9,30.10,SSW,202,1.6,1.6,83,0.00,OVC,,0.00,WeatherDisplay:10.37,2013-01-14 04:23:00,
2013-01-13 21:28:00,0.5,-2.9,30.09,ENE,68,0.2,1.1,85,0.00,OVC,,0.00,WeatherDisplay:10.37,2013-01-14 04:28:00,
2013-01-13 21:33:00,0.5,-3.4,30.09,South,180,0.0,0.0,83,0.00,OVC,,0.00,WeatherDisplay:10.37,2013-01-14 04:33:00,
2013-01-13 21:38:00,0.3,-3.9,30.09,North,360,0.0,0.0,82,0.00,OVC,,0.00,WeatherDisplay:10.37,2013-01-14 04:38:00,
2013-01-13 21:43:00,0.3,-3.6,30.09,South,180,0.0,0.0,83,0.00,OVC,,0.00,WeatherDisplay:10.37,2013-01-14 04:43:00,
2013-01-13 21:48:00,0.7,-2.7,30.09,South,180,0.0,0.0,85,0.00,OVC,,0.00,WeatherDisplay:10.37,2013-01-14 04:48:00,
2013-01-13 21:53:00,1.8,-1.2,30.09,SW,225,0.0,0.0,87,0.00,OVC,,0.00,WeatherDisplay:10.37,2013-01-14 04:53:00,
2013-01-13 21:58:00,0.7,-4.0,30.09,SW,225,1.2,1.2,80,0.00,OVC,,0.00,WeatherDisplay:10.37,2013-01-14 04:58:00,
2013-01-13 22:01:00,0.3,-4.2,30.09,SW,225,2.5,2.7,81,0.00,OVC,,0.00,WeatherDisplay:10.37,2013-01-14 05:01:00,
2013-01-13 22:02:00,0.3,-4.2,30.09,SW,225,2.4,2.7,81,0.00,OVC,,0.00,WeatherDisplay:10.37,2013-01-14 05:02:00,
2013-01-13 22:03:00,0.3,-4.2,30.09,SW,225,2.2,2.3,81,0.00,OVC,,0.00,WeatherDisplay:10.37,2013-01-14 05:03:00,
2013-01-13 22:04:00,0.3,-4.2,30.09,WSW,248,2.2,2.7,81,0.00,OVC,,0.00,WeatherDisplay:10.37,2013-01-14 05:04:00,
2013-01-13 22:09:00,0.7,-2.7,30.09,SW,225,0.0,0.0,85,0.00,OVC,,0.00,WeatherDisplay:10.37,2013-01-14 05:09:00,
2013-01-13 22:14:00,0.5,-3.7,30.09,WSW,248,1.7,2.3,82,0.00,OVC,,0.00,WeatherDisplay:10.37,2013-01-14 05:14:00,
2013-01-13 22:19:00,0.1,-4.1,30.09,SW,225,1.6,2.2,82,0.00,OVC,,0.00,WeatherDisplay:10.37,2013-01-14 05:19:00,
2013-01-13 22:24:00,-0.2,-4.1,30.09,SSE,158,1.7,2.3,83,0.00,OVC,,0.00,WeatherDisplay:10.37,2013-01-14 05:24:00,
2013-01-13 22:29:00,-0.2,-3.6,30.10,South,180,0.4,1.1,85,0.00,OVC,,0.00,WeatherDisplay:10.37,2013-01-14 05:29:00,
2013-01-13 22:34:00,-0.6,-4.0,30.10,SW,225,2.6,2.7,85,0.00,OVC,,0.00,WeatherDisplay:10.37,2013-01-14 05:34:00,
2013-01-13 22:39:00,-0.8,-4.5,30.09,West,270,1.9,2.3,84,0.00,OVC,,0.00,WeatherDisplay:10.37,2013-01-14 05:39:00,
2013-01-13 22:45:00,-1.1,-5.0,30.09,SE,135,1.6,1.7,83,0.00,OVC,,0.00,WeatherDisplay:10.37,2013-01-14 05:45:00,
2013-01-13 22:50:00,-0.8,-4.0,30.10,SW,225,0.0,1.1,86,0.00,OVC,,0.00,WeatherDisplay:10.37,2013-01-14 05:50:00,
2013-01-13 22:55:00,-0.9,-4.8,30.10,SE,135,2.2,2.3,83,0.00,OVC,,0.00,WeatherDisplay:10.37,2013-01-14 05:55:00,
2013-01-13 23:00:00,-0.9,-4.6,30.10,SSW,202,1.3,1.7,84,0.00,OVC,,0.00,WeatherDisplay:10.37,2013-01-14 06:00:00,
2013-01-13 23:05:00,-1.3,-5.2,30.09,South,180,2.4,3.5,83,0.00,OVC,,0.00,WeatherDisplay:10.37,2013-01-14 06:05:00,
2013-01-13 23:10:00,-1.3,-5.0,30.09,South,180,0.0,0.0,84,0.00,OVC,,0.00,WeatherDisplay:10.37,2013-01-14 06:10:00,
2013-01-13 23:15:00,-1.3,-5.0,30.09,SSE,158,1.7,1.7,84,0.00,OVC,,0.00,WeatherDisplay:10.37,2013-01-14 06:15:00,
2013-01-13 23:20:00,-1.7,-5.4,30.09,SW,225,2.2,2.3,84,0.00,OVC,,0.00,WeatherDisplay:10.37,2013-01-14 06:20:00,
2013-01-13 23:25:00,-1.3,-5.0,30.09,South,180,1.8,2.3,84,0.00,OVC,,0.00,WeatherDisplay:10.37,2013-01-14 06:25:00,
2013-01-13 23:30:00,-1.3,-5.0,30.09,South,180,0.7,1.1,84,0.00,OVC,,0.00,WeatherDisplay:10.37,2013-01-14 06:30:00,
2013-01-13 23:35:00,-1.5,-5.2,30.09,NE,45,0.0,0.0,84,0.00,OVC,,0.00,WeatherDisplay:10.37,2013-01-14 06:35:00,
2013-01-13 23:40:00,-1.7,-5.4,30.08,ENE,68,1.8,2.3,84,0.00,OVC,,0.00,WeatherDisplay:10.37,2013-01-14 06:40:00,
2013-01-13 23:45:00,-0.8,-4.0,30.08,WSW,248,0.0,0.0,86,0.00,OVC,,0.00,WeatherDisplay:10.37,2013-01-14 06:45:00,
2013-01-13 23:50:00,-1.1,-5.0,30.08,WSW,248,0.0,1.1,83,0.00,OVC,,0.00,WeatherDisplay:10.37,2013-01-14 06:50:00,
2013-01-13 23:55:00,-1.3,-5.2,30.08,NE,45,0.0,1.1,83,0.00,OVC,,0.00,WeatherDisplay:10.37,2013-01-14 06:55:00,